createdAt,value
2019-02-16T00:02:14.607Z,102279.73
2019-02-16T00:04:44.885Z,102274.31
2019-02-16T00:07:15.227Z,102265.48
2019-02-16T00:09:45.421Z,102260.64
2019-02-16T00:12:15.644Z,102260.64
2019-02-16T00:14:45.988Z,102261.08
2019-02-16T00:17:17.829Z,102252.70
2019-02-16T00:19:48.153Z,102257.19
2019-02-16T00:22:19.731Z,102255.88
2019-02-16T00:24:49.848Z,102257.66
2019-02-16T00:27:20.009Z,102256.77
2019-02-16T00:29:50.161Z,102260.72
2019-02-16T00:32:20.297Z,102255.42
2019-02-16T00:34:50.719Z,102252.73
2019-02-16T00:37:20.865Z,102260.19
2019-02-16T00:39:51.303Z,102257.47
2019-02-16T00:42:21.485Z,102255.64
2019-02-16T00:44:53.212Z,102256.52
2019-02-16T00:47:24.382Z,102263.14
2019-02-16T00:49:55.028Z,102252.59
2019-02-16T00:52:25.170Z,102253.00
2019-02-16T00:54:55.322Z,102253.91
2019-02-16T00:57:25.533Z,102247.34
2019-02-16T00:59:55.755Z,102246.05
2019-02-16T01:02:26.021Z,102248.69
2019-02-16T01:04:56.141Z,102246.41
2019-02-16T01:07:26.296Z,102246.81
2019-02-16T01:09:56.545Z,102244.56
2019-02-16T01:12:26.679Z,102246.69
2019-02-16T01:14:56.846Z,102242.69
2019-02-16T01:17:27.239Z,102240.80
2019-02-16T01:19:58.281Z,102231.02
2019-02-16T01:22:28.406Z,102230.06
2019-02-16T01:24:58.588Z,102224.80
2019-02-16T01:27:28.863Z,102217.33
2019-02-16T01:29:59.133Z,102209.86
2019-02-16T01:32:29.282Z,102213.83
2019-02-16T01:34:59.418Z,102213.40
2019-02-16T01:37:29.618Z,102216.02
2019-02-16T01:39:59.908Z,102214.20
2019-02-16T01:42:30.154Z,102217.66
2019-02-16T01:45:00.470Z,102206.19
2019-02-16T01:47:30.669Z,102208.80
2019-02-16T01:50:00.894Z,102215.80
2019-02-16T01:52:31.122Z,102213.53
2019-02-16T01:55:01.309Z,102207.77
2019-02-16T01:57:31.566Z,102206.43
2019-02-16T02:00:01.798Z,102203.75
2019-02-16T02:02:32.227Z,102205.02
2019-02-16T02:05:02.466Z,102199.28
2019-02-16T02:07:32.774Z,102199.17
2019-02-16T02:10:02.942Z,102195.20
2019-02-16T02:12:33.614Z,102185.97
2019-02-16T02:15:03.877Z,102184.77
2019-02-16T02:17:34.272Z,102181.23
2019-02-16T02:20:04.806Z,102183.45
2019-02-16T02:22:35.025Z,102184.81
2019-02-16T02:25:05.913Z,102184.33
2019-02-16T02:27:36.166Z,102190.81
2019-02-16T02:30:07.177Z,102184.25
2019-02-16T02:32:37.398Z,102175.83
2019-02-16T02:35:07.822Z,102174.54
2019-02-16T02:37:38.447Z,102170.59
2019-02-16T02:40:08.689Z,102160.86
2019-02-16T02:42:38.868Z,102153.00
2019-02-16T02:45:10.158Z,102155.71
2019-02-16T02:47:40.359Z,102158.84
2019-02-16T02:50:10.524Z,102155.40
2019-02-16T02:52:40.671Z,102152.79
2019-02-16T02:55:10.749Z,102150.58
2019-02-16T02:57:40.971Z,102138.74
2019-02-16T03:00:11.477Z,102146.72
2019-02-16T03:02:41.797Z,102148.92
2019-02-16T03:05:12.041Z,102144.89
2019-02-16T03:07:44.146Z,102149.28
2019-02-16T03:10:14.318Z,102141.87
2019-02-16T03:12:44.511Z,102145.37
2019-02-16T03:15:14.740Z,102143.62
2019-02-16T03:17:44.931Z,102143.16
2019-02-16T03:20:15.214Z,102143.16
2019-02-16T03:23:21.841Z,102140.02
2019-02-16T03:26:11.146Z,102140.87
2019-02-16T03:28:54.935Z,102135.94
2019-02-16T03:32:01.141Z,102135.84
2019-02-16T03:34:46.128Z,102132.77
2019-02-16T03:37:54.013Z,102137.95
2019-02-16T03:40:24.395Z,102138.81
2019-02-16T03:42:54.765Z,102133.95
2019-02-16T03:45:24.949Z,102136.95
2019-02-16T03:47:55.207Z,102135.17
2019-02-16T03:50:25.396Z,102128.12
2019-02-16T03:52:55.956Z,102130.31
2019-02-16T03:55:26.106Z,102125.95
2019-02-16T03:57:56.353Z,102129.08
2019-02-16T04:00:26.537Z,102126.49
2019-02-16T04:02:56.908Z,102125.15
2019-02-16T04:05:27.069Z,102128.69
2019-02-16T04:07:57.235Z,102122.02
2019-02-16T04:10:27.405Z,102122.45
2019-02-16T04:12:57.858Z,102113.64
2019-02-16T04:15:28.412Z,102115.31
2019-02-16T04:17:58.804Z,102116.58
2019-02-16T04:20:31.059Z,102099.85
2019-02-16T04:23:01.535Z,102097.66
2019-02-16T04:25:31.917Z,102090.59
2019-02-16T04:28:02.809Z,102100.65
2019-02-16T04:30:32.906Z,102098.95
2019-02-16T04:33:03.028Z,102090.17
2019-02-16T04:35:33.143Z,102089.81
2019-02-16T04:38:03.244Z,102089.92
2019-02-16T04:40:34.623Z,102079.38
2019-02-16T04:43:04.797Z,102090.83
2019-02-16T04:45:34.959Z,102085.50
2019-02-16T04:48:06.501Z,102082.41
2019-02-16T04:50:36.643Z,102090.70
2019-02-16T04:53:06.912Z,102090.77
2019-02-16T04:55:37.067Z,102084.19
2019-02-16T04:58:07.326Z,102084.57
2019-02-16T05:00:37.509Z,102084.06
2019-02-16T05:03:07.794Z,102089.32
2019-02-16T05:05:38.038Z,102095.03
2019-02-16T05:08:08.231Z,102090.92
2019-02-16T05:10:38.506Z,102089.55
2019-02-16T05:13:08.708Z,102095.17
2019-02-16T05:15:38.901Z,102088.56
2019-02-16T05:18:10.193Z,102085.06
2019-02-16T05:20:40.616Z,102079.33
2019-02-16T05:23:10.833Z,102080.16
2019-02-16T05:25:41.030Z,102073.53
2019-02-16T05:28:11.264Z,102082.71
2019-02-16T05:30:41.457Z,102075.22
2019-02-16T05:33:11.660Z,102078.27
2019-02-16T05:35:41.858Z,102071.23
2019-02-16T05:38:12.199Z,102073.88
2019-02-16T05:40:42.381Z,102070.35
2019-02-16T05:43:12.710Z,102072.98
2019-02-16T05:45:42.913Z,102073.86
2019-02-16T05:48:13.115Z,102084.41
2019-02-16T05:50:43.433Z,102093.12
2019-02-16T05:53:13.553Z,102094.85
2019-02-16T05:55:43.721Z,102093.48
2019-02-16T05:58:13.873Z,102096.44
2019-02-16T06:00:44.040Z,102094.16
2019-02-16T06:03:14.213Z,102096.77
2019-02-16T06:05:44.457Z,102088.41
2019-02-16T06:08:14.661Z,102092.00
2019-02-16T06:10:51.265Z,102091.97
2019-02-16T06:13:21.319Z,102097.61
2019-02-16T06:15:51.440Z,102101.16
2019-02-16T06:18:22.017Z,102097.09
2019-02-16T06:20:53.582Z,102087.80
2019-02-16T06:23:25.779Z,102087.83
2019-02-16T06:25:55.925Z,102090.48
2019-02-16T06:28:26.103Z,102091.77
2019-02-16T06:30:56.238Z,102091.25
2019-02-16T06:33:26.749Z,102091.75
2019-02-16T06:36:19.042Z,102096.56
2019-02-16T06:38:49.228Z,102091.77
2019-02-16T06:41:19.593Z,102092.27
2019-02-16T06:43:49.837Z,102096.24
2019-02-16T06:46:20.570Z,102104.08
2019-02-16T06:48:50.745Z,102104.98
2019-02-16T06:51:24.718Z,102101.89
2019-02-16T06:53:54.920Z,102108.49
2019-02-16T06:56:56.060Z,102106.73
2019-02-16T06:59:26.250Z,102103.28
2019-02-16T07:01:56.545Z,102101.56
2019-02-16T07:04:26.747Z,102099.86
2019-02-16T07:06:57.118Z,102109.54
2019-02-16T07:09:29.158Z,102100.71
2019-02-16T07:11:59.418Z,102117.95
2019-02-16T07:14:29.675Z,102110.91
2019-02-16T07:17:13.064Z,102107.92
2019-02-16T07:19:49.612Z,102107.52
2019-02-16T07:22:23.694Z,102117.22
2019-02-16T07:24:53.836Z,102120.73
2019-02-16T07:27:24.352Z,102119.91
2019-02-16T07:29:54.488Z,102119.08
2019-02-16T07:32:24.612Z,102123.25
2019-02-16T07:34:55.006Z,102124.63
2019-02-16T07:37:28.671Z,102119.36
2019-02-16T07:40:00.388Z,102115.41
2019-02-16T07:42:48.846Z,102113.70
2019-02-16T07:45:37.149Z,102121.66
2019-02-16T07:48:26.238Z,102116.91
2019-02-16T07:51:20.552Z,102120.06
2019-02-16T07:54:08.705Z,102121.51
2019-02-16T07:57:00.683Z,102113.74
2019-02-16T07:59:45.184Z,102119.62
2019-02-16T08:02:37.153Z,102120.48
2019-02-16T08:05:31.124Z,102126.46
2019-02-16T08:08:04.135Z,102123.03
2019-02-16T08:10:54.475Z,102123.88
2019-02-16T08:13:51.794Z,102123.06
2019-02-16T08:16:28.408Z,102115.23
2019-02-16T08:19:23.277Z,102114.47
2019-02-16T08:22:22.516Z,102111.53
2019-02-16T08:25:22.633Z,102122.17
2019-02-16T08:28:17.907Z,102109.58
2019-02-16T08:31:10.107Z,102120.70
2019-02-16T08:34:10.057Z,102118.61
2019-02-16T08:37:17.333Z,102111.75
2019-02-16T08:40:10.643Z,102121.55
2019-02-16T08:43:01.893Z,102112.90
2019-02-16T08:45:58.739Z,102117.89
2019-02-16T08:48:47.909Z,102110.09
2019-02-16T08:51:37.581Z,102096.11
2019-02-16T08:54:26.337Z,102108.96
2019-02-16T08:57:14.768Z,102117.00
2019-02-16T08:59:53.816Z,102109.58
2019-02-16T09:02:35.668Z,102097.78
2019-02-16T09:05:29.355Z,102092.64
2019-02-16T09:08:21.375Z,102101.11
2019-02-16T09:11:14.931Z,102095.91
2019-02-16T09:14:07.201Z,102091.16
2019-02-16T09:17:09.124Z,102083.33
2019-02-16T09:19:49.045Z,102078.50
2019-02-16T09:22:27.723Z,102083.39
2019-02-16T09:25:16.942Z,102087.84
2019-02-16T09:28:06.180Z,102084.81
2019-02-16T09:30:48.816Z,102082.62
2019-02-16T09:33:39.855Z,102076.93
2019-02-16T09:36:25.849Z,102077.40
2019-02-16T09:39:18.565Z,102083.61
2019-02-16T09:41:57.040Z,102084.94
2019-02-16T09:44:43.975Z,102077.09
2019-02-16T09:47:36.559Z,102083.70
2019-02-16T09:50:46.146Z,102086.81
2019-02-16T09:53:37.205Z,102099.64
2019-02-16T09:56:45.067Z,102104.98
2019-02-16T09:59:37.080Z,102113.80
2019-02-16T10:06:00.940Z,102106.37
2019-02-16T10:08:42.524Z,102104.16
2019-02-16T10:11:19.547Z,102109.03
2019-02-16T10:14:08.817Z,102114.33
2019-02-16T10:16:46.205Z,102105.06
2019-02-16T10:19:27.118Z,102102.41
2019-02-16T10:22:03.091Z,102104.23
2019-02-16T10:24:50.600Z,102105.55
2019-02-16T10:27:41.022Z,102099.79
2019-02-16T10:30:23.257Z,102101.13
2019-02-16T10:33:12.514Z,102109.97
2019-02-16T10:36:24.044Z,102102.89
2019-02-16T10:39:16.537Z,102098.44
2019-02-16T10:48:43.435Z,102109.93
2019-02-16T10:51:15.776Z,102110.80
2019-02-16T10:53:55.360Z,102120.96
2019-02-16T10:56:48.150Z,102115.64
2019-02-16T10:59:46.375Z,102116.50
2019-02-16T11:02:43.608Z,102112.06
2019-02-16T11:05:40.707Z,102111.55
2019-02-16T11:08:19.071Z,102121.70
2019-02-16T11:11:09.082Z,102112.88
2019-02-16T11:13:57.147Z,102112.88
2019-02-16T11:16:53.581Z,102096.02
2019-02-16T11:19:54.204Z,102099.08
2019-02-16T11:22:52.986Z,102096.39
2019-02-16T11:25:54.550Z,102090.12
2019-02-16T11:28:59.175Z,102090.55
2019-02-16T11:31:57.877Z,102086.14
2019-02-16T11:34:33.902Z,102092.33
2019-02-16T11:37:14.221Z,102093.18
2019-02-16T11:40:02.255Z,102090.06
2019-02-16T11:42:54.977Z,102083.86
2019-02-16T11:45:42.761Z,102078.55
2019-02-16T11:48:33.641Z,102074.50
2019-02-16T11:51:15.651Z,102075.31
2019-02-16T11:53:57.796Z,102080.59
2019-02-16T11:56:49.701Z,102076.47
2019-02-16T11:59:40.301Z,102076.06
2019-02-16T12:02:39.416Z,102069.41
2019-02-16T12:05:19.361Z,102068.01
2019-02-16T12:08:11.462Z,102074.63
2019-02-16T12:11:07.787Z,102066.57
2019-02-16T12:13:55.667Z,102067.45
2019-02-16T12:16:32.398Z,102065.69
2019-02-16T12:19:22.242Z,102066.52
2019-02-16T12:22:16.203Z,102066.45
2019-02-16T12:25:20.559Z,102059.80
2019-02-16T12:28:09.283Z,102056.23
2019-02-16T12:31:02.000Z,102046.45
2019-02-16T12:34:03.468Z,102044.53
2019-02-16T12:37:05.263Z,102038.30
2019-02-16T12:39:59.034Z,102030.25
2019-02-16T12:42:47.138Z,102034.27
2019-02-16T12:45:39.810Z,102023.61
2019-02-16T12:48:19.650Z,102020.93
2019-02-16T12:51:07.867Z,102022.23
2019-02-16T12:54:03.050Z,102020.48
2019-02-16T12:56:47.346Z,102017.75
2019-02-16T12:59:51.747Z,102014.17
2019-02-16T13:02:38.544Z,102011.92
2019-02-16T13:05:17.958Z,102003.03
2019-02-16T13:07:58.581Z,101999.05
2019-02-16T13:10:47.730Z,101986.13
2019-02-16T13:13:27.712Z,101990.98
2019-02-16T13:16:24.770Z,101992.72
2019-02-16T13:19:26.009Z,101983.42
2019-02-16T13:22:08.595Z,101985.15
2019-02-16T13:24:57.512Z,101980.27
2019-02-16T13:27:46.750Z,101985.08
2019-02-16T13:30:35.771Z,101988.22
2019-02-16T13:33:28.057Z,101987.71
2019-02-16T13:36:29.555Z,101982.46
2019-02-16T13:39:17.744Z,101979.77
2019-02-16T13:42:01.885Z,101976.19
2019-02-16T13:44:49.662Z,101980.16
2019-02-16T13:47:26.536Z,101976.22
2019-02-16T13:50:16.084Z,101978.83
2019-02-16T13:53:11.606Z,101980.62
2019-02-16T13:55:46.939Z,101985.54
2019-02-16T13:58:29.934Z,101977.55
2019-02-16T14:01:22.399Z,101977.50
2019-02-16T14:04:08.910Z,101973.96
2019-02-16T14:06:58.033Z,101974.45
2019-02-16T14:09:45.598Z,101967.30
2019-02-16T14:12:31.030Z,101969.13
2019-02-16T14:15:11.593Z,101964.73
2019-02-16T14:17:51.609Z,101962.48
2019-02-16T14:20:22.028Z,101961.57
2019-02-16T14:22:52.333Z,101967.73
2019-02-16T14:25:31.722Z,101962.00
2019-02-16T14:28:02.013Z,101968.63
2019-02-16T14:30:33.050Z,101962.41
2019-02-16T14:33:03.435Z,101956.14
2019-02-16T14:35:33.716Z,101955.73
2019-02-16T14:38:22.176Z,101956.20
2019-02-16T14:40:52.391Z,101957.55
2019-02-16T14:43:23.079Z,101958.91
2019-02-16T14:45:53.218Z,101959.30
2019-02-16T14:48:23.374Z,101963.75
2019-02-16T14:50:53.580Z,101954.38
2019-02-16T14:53:23.803Z,101948.18
2019-02-16T14:55:54.552Z,101946.38
2019-02-16T14:58:24.973Z,101946.82
2019-02-16T15:00:57.054Z,101940.67
2019-02-16T15:03:28.848Z,101941.16
2019-02-16T15:05:59.693Z,101939.39
2019-02-16T15:08:30.202Z,101944.74
2019-02-16T15:11:00.587Z,101946.56
2019-02-16T15:13:30.766Z,101939.44
2019-02-16T15:16:01.110Z,101930.61
2019-02-16T15:18:31.362Z,101931.98
2019-02-16T15:21:01.684Z,101930.68
2019-02-16T15:23:31.884Z,101923.63
2019-02-16T15:26:02.047Z,101932.56
2019-02-16T15:28:32.146Z,101931.73
2019-02-16T15:31:02.293Z,101934.39
2019-02-16T15:33:32.439Z,101937.11
2019-02-16T15:36:02.657Z,101938.05
2019-02-16T15:38:33.000Z,101934.98
2019-02-16T15:41:03.622Z,101936.34
2019-02-16T15:43:33.782Z,101941.75
2019-02-16T15:46:05.607Z,101941.81
2019-02-16T15:48:35.760Z,101946.72
2019-02-16T15:51:06.007Z,101946.77
2019-02-16T15:53:36.234Z,101937.95
2019-02-16T15:56:10.423Z,101939.75
2019-02-16T15:58:38.496Z,101938.90
2019-02-16T16:01:08.939Z,101942.07
2019-02-16T16:03:39.148Z,101940.38
2019-02-16T16:06:09.303Z,101942.24
2019-02-16T16:08:59.369Z,101944.53
2019-02-16T16:11:43.816Z,101942.81
2019-02-16T16:14:35.767Z,101942.03
2019-02-16T16:17:13.075Z,101942.13
2019-02-16T16:20:00.916Z,101937.34
2019-02-16T16:22:51.401Z,101943.19
2019-02-16T16:25:46.519Z,101954.34
2019-02-16T16:28:27.017Z,101955.33
2019-02-16T16:31:17.325Z,101958.48
2019-02-16T16:34:24.622Z,101957.23
2019-02-16T16:37:11.535Z,101961.71
2019-02-16T16:40:09.561Z,101962.59
2019-02-16T16:42:58.755Z,101967.48
2019-02-16T16:45:56.541Z,101963.57
2019-02-16T16:49:01.058Z,101967.10
2019-02-16T16:52:01.079Z,101977.77
2019-02-16T16:54:48.877Z,101976.48
2019-02-16T16:57:40.995Z,101980.48
2019-02-16T17:00:28.915Z,101986.23
2019-02-16T17:03:21.265Z,101988.44
2019-02-16T17:06:16.549Z,101982.25
2019-02-16T17:09:01.241Z,101986.67
2019-02-16T17:11:50.678Z,101987.56
2019-02-16T17:14:26.663Z,101988.45
2019-02-16T17:17:13.427Z,101989.77
2019-02-16T17:20:01.496Z,101986.64
2019-02-16T17:22:59.910Z,101985.33
2019-02-16T17:25:54.288Z,101997.66
2019-02-16T17:28:42.664Z,101994.98
2019-02-16T17:31:20.837Z,101997.63
2019-02-16T17:34:16.431Z,101998.08
2019-02-16T17:37:06.341Z,101994.95
2019-02-16T17:39:57.088Z,101997.14
2019-02-16T17:42:47.162Z,101996.27
2019-02-16T17:45:38.391Z,101999.32
2019-02-16T17:48:24.342Z,101998.41
2019-02-16T17:51:25.617Z,102004.97
2019-02-16T17:54:16.748Z,102003.64
2019-02-16T17:57:08.748Z,101998.75
2019-02-16T17:59:54.812Z,101996.51
2019-02-16T18:02:57.315Z,102003.07
2019-02-16T18:06:01.566Z,102008.34
2019-02-16T18:09:09.108Z,102010.06
2019-02-16T18:11:57.436Z,102017.06
2019-02-16T18:14:51.176Z,102012.62
2019-02-16T18:17:44.050Z,102011.23
2019-02-16T18:20:29.834Z,102011.17
2019-02-16T18:23:11.326Z,102011.56
2019-02-16T18:25:54.091Z,102011.55
2019-02-16T18:28:32.931Z,102011.52
2019-02-16T18:31:25.430Z,102007.50
2019-02-16T18:34:23.876Z,102014.09
2019-02-16T18:37:12.218Z,102015.38
2019-02-16T18:40:10.308Z,102013.52
2019-02-16T18:43:08.808Z,102016.13
2019-02-16T18:45:56.175Z,102013.01
2019-02-16T18:48:43.762Z,102015.58
2019-02-16T18:51:31.596Z,102012.91
2019-02-16T18:54:35.964Z,102017.71
2019-02-16T18:57:23.970Z,102012.39
2019-02-16T19:00:18.975Z,102021.99
2019-02-16T19:02:59.552Z,102008.73
2019-02-16T19:05:49.067Z,102015.31
2019-02-16T19:08:27.561Z,102018.78
2019-02-16T19:11:20.006Z,102023.17
2019-02-16T19:14:16.614Z,102025.34
2019-02-16T19:17:04.565Z,102025.72
2019-02-16T19:19:51.693Z,102019.56
2019-02-16T19:22:36.976Z,102022.14
2019-02-16T19:25:26.515Z,102019.02
2019-02-16T19:28:13.371Z,102017.66
2019-02-16T19:31:06.070Z,102016.31
2019-02-16T19:34:07.525Z,102014.06
2019-02-16T19:36:55.800Z,102016.66
2019-02-16T19:39:40.205Z,102012.69
2019-02-16T19:42:26.718Z,102014.39
2019-02-16T19:45:14.724Z,102015.23
2019-02-16T19:48:09.935Z,102012.10
2019-02-16T19:50:58.793Z,102004.98
2019-02-16T19:53:38.099Z,102003.22
2019-02-16T19:56:30.581Z,102015.34
2019-02-16T19:59:18.641Z,102014.53
2019-02-16T20:02:15.102Z,102011.41
2019-02-16T20:05:13.437Z,102014.92
2019-02-16T20:07:59.769Z,102023.70
2019-02-16T20:10:50.973Z,102024.55
2019-02-16T20:13:40.061Z,102019.28
2019-02-16T20:16:27.797Z,102026.72
2019-02-16T20:19:21.541Z,102023.16
2019-02-16T20:22:14.200Z,102025.37
2019-02-16T20:25:04.275Z,102027.51
2019-02-16T20:27:53.930Z,102026.13
2019-02-16T20:30:36.065Z,102023.89
2019-02-16T20:33:25.574Z,102022.48
2019-02-16T20:36:11.999Z,102032.10
2019-02-16T20:39:00.927Z,102034.64
2019-02-16T20:41:50.947Z,102039.89
2019-02-16T20:44:43.993Z,102035.94
2019-02-16T20:47:44.498Z,102031.09
2019-02-16T20:50:36.435Z,102037.64
2019-02-16T20:53:40.973Z,102035.88
2019-02-16T20:56:17.242Z,102040.28
2019-02-16T20:59:09.355Z,102045.09
2019-02-16T21:01:49.618Z,102041.75
2019-02-16T21:04:38.804Z,102041.80
2019-02-16T21:07:26.592Z,102038.12
2019-02-16T21:10:21.024Z,102038.66
2019-02-16T21:13:19.491Z,102040.92
2019-02-16T21:16:12.917Z,102039.98
2019-02-16T21:19:00.763Z,102042.63
2019-02-16T21:21:55.963Z,102041.70
2019-02-16T21:24:42.409Z,102042.56
2019-02-16T21:27:36.820Z,102039.91
2019-02-16T21:30:16.563Z,102054.69
2019-02-16T21:33:00.460Z,102056.01
2019-02-16T21:35:48.559Z,102054.69
2019-02-16T21:38:36.437Z,102058.62
2019-02-16T21:41:18.956Z,102058.13
2019-02-16T21:44:23.534Z,102056.34
2019-02-16T21:47:15.414Z,102056.81
2019-02-16T21:50:07.548Z,102059.79
2019-02-16T21:52:49.464Z,102051.89
2019-02-16T21:55:25.829Z,102052.72
2019-02-16T21:58:15.116Z,102048.33
2019-02-16T22:01:05.985Z,102043.04
2019-02-16T22:03:51.635Z,102042.14
2019-02-16T22:06:39.654Z,102042.06
2019-02-16T22:09:38.144Z,102033.99
2019-02-16T22:12:15.942Z,102030.42
2019-02-16T22:14:46.244Z,102034.38
2019-02-16T22:17:16.854Z,102034.80
2019-02-16T22:19:47.117Z,102040.06
2019-02-16T22:22:20.356Z,102039.57
2019-02-16T22:24:50.686Z,102037.30
2019-02-16T22:27:22.476Z,102041.91
2019-02-16T22:29:52.973Z,102042.00
2019-02-16T22:32:48.270Z,102045.09
2019-02-16T22:35:18.594Z,102037.59
2019-02-16T22:37:49.002Z,102039.30
2019-02-16T22:40:19.325Z,102036.64
2019-02-16T22:45:48.667Z,102037.44
2019-02-16T22:48:19.342Z,102037.44
2019-02-16T22:50:53.068Z,102034.34
2019-02-16T22:53:23.906Z,102036.48
2019-02-16T22:55:57.280Z,102039.08
2019-02-16T22:58:29.385Z,102038.61
2019-02-16T23:00:59.748Z,102032.45
2019-02-16T23:03:33.584Z,102033.28
2019-02-16T23:06:03.759Z,102040.19
2019-02-16T23:08:34.153Z,102041.00
2019-02-16T23:11:04.612Z,102041.85
2019-02-16T23:13:39.488Z,102037.97
2019-02-16T23:16:09.770Z,102043.23
2019-02-16T23:18:40.049Z,102048.02
2019-02-16T23:21:10.237Z,102048.00
2019-02-16T23:23:40.404Z,102050.66
2019-02-16T23:26:10.634Z,102053.64
2019-02-16T23:28:40.693Z,102053.14
2019-02-16T23:31:10.943Z,102052.70
2019-02-16T23:33:41.108Z,102059.17
2019-02-16T23:36:11.318Z,102062.20
2019-02-16T23:38:45.652Z,102062.20
2019-02-16T23:41:15.956Z,102061.22
2019-02-16T23:43:46.174Z,102059.84
2019-02-16T23:46:16.480Z,102056.28
2019-02-16T23:48:46.685Z,102054.09
2019-02-16T23:51:16.823Z,102062.00
2019-02-16T23:53:48.064Z,102054.97
2019-02-16T23:56:18.397Z,102054.97
2019-02-16T23:58:50.385Z,102057.98
